Time;durP1;ratioP1;P1;durP2;ratioP2;P2;SDS_P1;SDS_P2;PMS_P1;PMS_P2;Temp;Humidity;BMP_temperature;BMP_pressure;BME280_temperature;BME280_humidity;BME280_pressure;Samples;Min_cycle;Max_cycle;Signal;HPM_P1;HPM_P2
2020/12/04 00:01:51;;;;;;;8.36;7.05;;;5.40;99.90;;;9.90;88.03;98301.80;1693425;75;24508;-80
2020/12/04 00:04:07;;;;;;;7.93;7.10;;;5.40;99.90;;;9.81;87.78;98292.53;1685283;75;24500;-79
2020/12/04 00:06:23;;;;;;;8.73;6.53;;;5.30;99.90;;;9.82;88.29;98281.66;1696260;75;24967;-78
2020/12/04 00:08:39;;;;;;;7.53;6.45;;;5.30;99.90;;;9.70;88.23;98284.61;1688500;75;24550;-79
2020/12/04 00:10:57;;;;;;;8.49;7.09;;;5.30;99.90;;;9.80;87.66;98281.70;1691244;75;24934;-80
2020/12/04 00:13:13;;;;;;;6.72;5.88;;;5.30;99.90;;;9.90;87.60;98279.70;1683390;75;24457;-78
2020/12/04 00:15:31;;;;;;;7.35;6.56;;;5.30;99.90;;;9.79;87.59;98276.12;1692769;75;24447;-79
2020/12/04 00:17:46;;;;;;;8.10;7.27;;;5.40;99.90;;;9.86;87.16;98262.08;1697400;75;24441;-79
2020/12/04 00:20:02;;;;;;;7.91;6.99;;;5.40;99.90;;;9.89;86.96;98260.69;1695152;75;24473;-80
2020/12/04 00:22:18;;;;;;;8.24;6.42;;;5.40;99.90;;;10.05;88.05;98261.09;1689968;75;24878;-79
2020/12/04 00:24:34;;;;;;;7.56;6.48;;;5.40;99.90;;;9.72;87.65;98253.78;1685843;75;24516;-79
2020/12/04 00:26:51;;;;;;;8.24;7.09;;;5.40;99.90;;;9.84;88.19;98253.89;1685569;75;24959;-80
2020/12/04 00:29:08;;;;;;;7.82;6.02;;;5.40;99.90;;;9.92;87.13;98244.14;1687158;74;24452;-78
2020/12/04 00:31:24;;;;;;;8.30;6.76;;;5.40;99.90;;;9.76;87.35;98237.22;1682939;75;24989;-79
2020/12/04 00:33:40;;;;;;;7.65;6.76;;;5.40;99.90;;;9.79;86.95;98238.44;1696061;74;24445;-78
2020/12/04 00:35:56;;;;;;;7.43;6.20;;;5.50;99.90;;;9.94;86.80;98237.16;1691758;74;24941;-80
2020/12/04 00:38:12;;;;;;;7.10;6.38;;;5.40;99.90;;;9.78;86.97;98225.48;1702780;74;24920;-79
2020/12/04 00:40:28;;;;;;;5.97;4.96;;;5.40;99.90;;;9.91;87.03;98227.68;1694237;74;24910;-81
2020/12/04 00:42:47;;;;;;;10.14;5.97;;;5.40;99.90;;;9.81;87.11;98222.80;1702269;74;24895;-80
2020/12/04 00:45:04;;;;;;;8.25;6.91;;;5.40;99.90;;;9.80;86.27;98216.73;1702999;74;24437;-81
2020/12/04 00:47:19;;;;;;;8.83;6.19;;;5.30;99.90;;;9.72;86.64;98216.10;1696425;74;24472;-79
2020/12/04 00:49:35;;;;;;;7.18;6.46;;;5.30;99.90;;;9.71;86.38;98213.11;1696818;74;24439;-79
2020/12/04 00:51:55;;;;;;;7.69;6.67;;;5.30;99.90;;;9.82;86.28;98205.86;1707297;74;24997;-79
2020/12/04 00:54:11;;;;;;;7.02;6.32;;;5.30;99.90;;;9.88;85.75;98191.38;1709172;74;24375;-78
2020/12/04 00:56:34;;;;;;;7.41;6.39;;;5.30;99.90;;;9.82;86.09;98186.37;1707195;74;24960;-81
2020/12/04 00:58:52;;;;;;;7.73;6.46;;;5.30;99.90;;;9.80;86.45;98196.42;1709201;74;24392;-78
2020/12/04 01:01:08;;;;;;;8.23;6.80;;;5.30;99.90;;;9.76;86.29;98184.39;1696874;74;24426;-79
2020/12/04 01:03:24;;;;;;;6.57;5.69;;;5.40;99.90;;;9.88;86.39;98187.48;1709999;74;24539;-78
2020/12/04 01:05:40;;;;;;;7.22;6.11;;;5.30;99.90;;;9.77;85.95;98177.02;1704255;74;25090;-77
2020/12/04 01:07:56;;;;;;;6.31;5.53;;;5.40;99.90;;;9.71;86.55;98170.23;1707098;74;24469;-79
2020/12/04 01:10:13;;;;;;;7.25;6.20;;;5.40;99.90;;;9.72;86.67;98175.00;1700102;74;24487;-79
2020/12/04 01:12:42;;;;;;;8.48;7.02;;;5.40;99.90;;;9.87;85.75;98165.00;1700372;74;24457;-78
2020/12/04 01:14:56;;;;;;;8.00;7.00;;;5.40;99.90;;;9.84;85.47;98156.00;1712183;74;24492;-80
2020/12/04 01:17:11;;;;;;;6.99;5.88;;;5.40;99.90;;;9.95;85.85;98164.77;1705895;74;24494;-78
2020/12/04 01:19:27;;;;;;;8.00;6.54;;;5.40;99.90;;;9.70;86.03;98158.16;1707372;74;24457;-79
2020/12/04 01:21:43;;;;;;;8.13;6.70;;;5.40;99.90;;;9.99;85.87;98153.40;1705075;74;24437;-80
2020/12/04 01:24:01;;;;;;;6.59;5.66;;;5.40;99.90;;;9.95;85.81;98156.97;1698884;74;24476;-79
2020/12/04 01:26:17;;;;;;;6.99;6.19;;;5.40;99.90;;;9.73;86.10;98149.41;1705878;74;24443;-77
2020/12/04 01:28:33;;;;;;;7.79;6.49;;;5.40;99.90;;;9.92;85.28;98146.66;1699128;74;24511;-79
2020/12/04 01:30:49;;;;;;;9.81;7.08;;;5.40;99.90;;;9.87;85.44;98147.25;1701070;74;24542;-79
2020/12/04 01:33:05;;;;;;;7.37;5.87;;;5.40;99.90;;;9.84;85.48;98134.34;1707890;74;24433;-79
2020/12/04 01:35:21;;;;;;;7.36;6.15;;;5.40;99.90;;;9.69;86.08;98142.61;1714786;74;24435;-79
2020/12/04 01:37:38;;;;;;;7.54;6.23;;;5.30;99.90;;;9.70;85.59;98128.71;1696919;74;24494;-79
2020/12/04 01:39:54;;;;;;;7.28;6.42;;;5.30;99.90;;;9.90;85.79;98127.22;1702893;74;24466;-79
2020/12/04 01:42:10;;;;;;;6.36;5.60;;;5.30;99.90;;;9.81;85.50;98129.24;1704400;74;24483;-79
2020/12/04 01:44:26;;;;;;;6.96;6.25;;;5.30;99.90;;;9.78;85.35;98113.31;1703551;74;24461;-79
2020/12/04 01:46:42;;;;;;;7.04;6.24;;;5.30;99.90;;;9.81;84.84;98108.45;1709784;74;24476;-79
2020/12/04 01:49:00;;;;;;;7.93;7.05;;;5.20;99.90;;;9.88;85.57;98105.61;1697702;74;24957;-79
2020/12/04 01:51:18;;;;;;;6.48;5.58;;;5.30;99.90;;;9.90;85.89;98118.56;1708719;74;24490;-80
2020/12/04 01:53:35;;;;;;;7.22;6.47;;;5.30;99.90;;;9.72;85.75;98111.34;1696661;74;24961;-80
2020/12/04 01:55:52;;;;;;;7.17;6.01;;;5.30;99.90;;;9.97;85.86;98099.30;1708156;74;24565;-79
2020/12/04 01:58:12;;;;;;;7.58;6.48;;;5.20;99.90;;;9.74;85.70;98105.19;1703189;74;24452;-80
2020/12/04 02:00:27;;;;;;;7.98;6.43;;;5.30;99.90;;;9.82;85.61;98101.05;1708426;74;24425;-79
2020/12/04 02:02:47;;;;;;;7.27;6.01;;;5.20;99.90;;;9.77;85.29;98100.36;1697757;74;24524;-79
2020/12/04 02:05:03;;;;;;;7.28;6.57;;;5.20;99.90;;;9.72;86.50;98091.38;1696749;74;24479;-79
2020/12/04 02:07:27;;;;;;;6.84;5.87;;;5.20;99.90;;;9.72;86.06;98083.58;1708769;74;24507;-78
2020/12/04 02:09:48;;;;;;;7.57;4.49;;;5.20;99.90;;;9.72;85.60;98079.69;1711665;74;24440;-78
2020/12/04 02:12:08;;;;;;;6.63;5.80;;;5.10;99.90;;;9.64;85.83;98071.27;1697141;74;24543;-79
2020/12/04 02:14:25;;;;;;;5.30;4.69;;;5.10;99.90;;;9.77;85.55;98079.10;1702119;74;24512;-78
2020/12/04 02:16:43;;;;;;;7.00;6.08;;;5.10;99.90;;;9.57;85.93;98074.11;1699106;74;24565;-79
2020/12/04 02:18:59;;;;;;;6.58;5.58;;;5.10;99.90;;;9.70;85.77;98061.16;1709511;74;24464;-79
2020/12/04 02:21:16;;;;;;;6.45;5.60;;;5.10;99.90;;;9.72;86.73;98072.36;1703844;74;24500;-79
2020/12/04 02:23:33;;;;;;;6.75;6.05;;;5.10;99.90;;;9.52;86.90;98066.89;1703550;74;24412;-80
2020/12/04 02:25:51;;;;;;;7.64;6.10;;;5.10;99.90;;;9.71;86.77;98057.21;1703765;74;24467;-79
2020/12/04 02:28:07;;;;;;;6.90;6.14;;;5.10;99.90;;;9.72;86.43;98045.08;1702014;74;24869;-78
2020/12/04 02:30:28;;;;;;;7.65;6.40;;;5.00;99.90;;;9.76;86.59;98048.83;1709147;74;24468;-80
2020/12/04 02:32:45;;;;;;;6.52;5.72;;;5.00;99.90;;;9.80;86.48;98040.03;1701669;74;24495;-80
2020/12/04 02:35:01;;;;;;;6.46;5.62;;;5.00;99.90;;;9.74;86.28;98041.52;1700272;74;24877;-81
2020/12/04 02:37:17;;;;;;;6.51;4.99;;;5.10;99.90;;;9.68;86.80;98033.92;1706600;74;24509;-80
2020/12/04 02:39:33;;;;;;;6.48;5.60;;;5.00;99.90;;;9.56;87.06;98020.46;1706930;74;24955;-79
2020/12/04 02:41:49;;;;;;;7.08;6.06;;;5.00;99.90;;;9.63;87.12;98011.13;1702705;74;24432;-78
2020/12/04 02:44:08;;;;;;;7.31;5.82;;;5.00;99.90;;;9.61;87.82;98017.28;1709172;74;24534;-80
2020/12/04 02:46:24;;;;;;;6.66;5.79;;;5.00;99.90;;;9.61;87.02;98006.89;1698741;74;24433;-79
2020/12/04 02:48:40;;;;;;;6.40;5.27;;;5.00;99.90;;;9.72;86.86;97997.84;1697830;74;24460;-81
2020/12/04 02:50:56;;;;;;;5.88;5.25;;;5.00;99.90;;;9.55;87.47;97995.40;1698222;74;24470;-80
2020/12/04 02:53:12;;;;;;;5.96;5.36;;;5.00;99.90;;;9.66;87.57;97989.42;1702356;74;24979;-79
2020/12/04 02:55:29;;;;;;;5.74;5.03;;;5.00;99.90;;;9.70;87.64;97980.17;1709911;74;25008;-80
2020/12/04 02:57:44;;;;;;;5.10;3.80;;;5.00;99.90;;;9.66;87.09;97989.42;1707397;74;24494;-79
2020/12/04 03:00:00;;;;;;;5.53;4.67;;;5.00;99.90;;;9.50;87.61;97970.84;1696509;74;24444;-78
2020/12/04 03:02:16;;;;;;;5.61;5.11;;;5.00;99.90;;;9.57;87.92;97976.26;1711167;74;24431;-79
2020/12/04 03:04:32;;;;;;;4.93;4.38;;;5.00;99.90;;;9.56;87.59;97962.88;1699788;74;24452;-78
2020/12/04 03:06:48;;;;;;;4.35;3.89;;;5.00;99.90;;;9.57;87.74;97972.36;1709284;74;24449;-80
2020/12/04 03:09:05;;;;;;;4.77;4.30;;;5.00;99.90;;;9.56;88.03;97960.28;1709616;74;24880;-79
2020/12/04 03:11:22;;;;;;;4.51;4.07;;;5.00;99.90;;;9.57;87.77;97956.77;1704524;74;24416;-78
2020/12/04 03:13:38;;;;;;;5.47;4.93;;;5.00;99.90;;;9.60;87.82;97960.57;1708621;74;24506;-79
2020/12/04 03:15:54;;;;;;;5.27;4.77;;;5.00;99.90;;;9.73;87.76;97954.09;1709624;74;24519;-79
2020/12/04 03:18:10;;;;;;;5.59;4.32;;;5.00;99.90;;;9.69;88.08;97955.07;1701205;74;24529;-79
2020/12/04 03:20:26;;;;;;;7.13;5.00;;;5.10;99.90;;;9.61;87.91;97944.55;1700522;74;24441;-81
2020/12/04 03:22:43;;;;;;;4.93;3.80;;;5.10;99.90;;;9.75;87.77;97947.11;1701587;74;24440;-81
2020/12/04 03:25:05;;;;;;;5.59;4.64;;;5.00;99.90;;;9.69;87.57;97942.55;1699901;74;25344;-81
2020/12/04 03:27:21;;;;;;;4.23;3.15;;;5.10;99.90;;;9.83;87.21;97945.55;1696025;74;24495;-80
2020/12/04 03:29:37;;;;;;;5.14;4.56;;;5.00;99.90;;;9.50;87.92;97942.27;1696060;74;24443;-79
2020/12/04 03:31:53;;;;;;;3.91;3.42;;;5.00;99.90;;;9.83;87.19;97929.48;1711540;74;24898;-78
2020/12/04 03:34:11;;;;;;;5.55;4.67;;;5.00;99.90;;;9.87;86.65;97937.59;1712269;74;24720;-79
2020/12/04 03:36:27;;;;;;;4.43;3.76;;;5.00;99.90;;;9.78;86.65;97935.31;1700332;74;25176;-79
2020/12/04 03:38:43;;;;;;;5.15;4.54;;;5.00;99.90;;;9.79;87.00;97938.30;1704791;74;24537;-78
2020/12/04 03:41:03;;;;;;;5.36;4.44;;;5.10;99.90;;;9.93;86.58;97943.02;1701595;74;24509;-80
2020/12/04 03:43:19;;;;;;;5.31;4.78;;;5.10;99.90;;;9.84;87.34;97940.73;1719054;74;24866;-78
2020/12/04 03:45:34;;;;;;;4.78;4.31;;;5.20;99.90;;;10.01;86.93;97933.22;1702821;74;24920;-77
2020/12/04 03:47:52;;;;;;;4.60;4.10;;;5.20;99.90;;;10.06;86.55;97930.88;1709664;74;24583;-78
2020/12/04 03:50:09;;;;;;;4.20;3.79;;;5.30;99.90;;;10.12;86.27;97944.14;1696966;74;24457;-78
2020/12/04 03:52:24;;;;;;;4.35;3.71;;;5.30;99.90;;;10.10;86.75;97944.66;1704390;74;24503;-80
2020/12/04 03:54:42;;;;;;;3.53;3.22;;;5.40;99.90;;;10.03;86.95;97929.69;1707937;74;24980;-79
2020/12/04 03:56:58;;;;;;;5.23;4.15;;;5.40;99.90;;;9.95;87.04;97934.30;1696638;74;24449;-78
2020/12/04 03:59:14;;;;;;;5.21;4.45;;;5.40;99.90;;;10.10;86.46;97930.36;1705970;74;24858;-78
2020/12/04 04:01:32;;;;;;;4.06;3.70;;;5.40;99.90;;;10.11;86.50;97931.61;1715568;74;24470;-79
2020/12/04 04:03:50;;;;;;;4.21;3.61;;;5.40;99.90;;;10.08;86.43;97936.06;1702600;74;24528;-79
2020/12/04 04:06:06;;;;;;;4.47;3.84;;;5.40;99.90;;;10.05;86.14;97946.06;1696182;74;24874;-80
2020/12/04 04:08:21;;;;;;;4.74;4.09;;;5.40;99.90;;;10.06;85.88;97937.82;1716607;74;24883;-80
2020/12/04 04:10:38;;;;;;;3.86;3.34;;;5.40;99.90;;;9.98;86.39;97914.69;1701000;74;24525;-80
2020/12/04 04:12:54;;;;;;;4.95;3.68;;;5.40;99.90;;;9.83;86.73;97928.19;1696719;74;24459;-79
2020/12/04 04:15:10;;;;;;;4.50;3.82;;;5.40;99.90;;;9.82;87.72;97916.54;1698656;74;24461;-79
2020/12/04 04:17:26;;;;;;;3.77;3.41;;;5.30;99.90;;;9.98;86.99;97920.33;1708297;74;24433;-79
2020/12/04 04:19:49;;;;;;;4.14;3.21;;;5.30;99.90;;;9.71;88.14;97933.80;1704855;74;24417;-79
2020/12/04 04:22:06;;;;;;;4.22;3.80;;;5.30;99.90;;;9.82;86.96;97922.59;1698220;74;25185;-80
2020/12/04 04:24:22;;;;;;;3.43;3.12;;;5.30;99.90;;;10.16;86.54;97927.08;1703067;74;24529;-79
2020/12/04 04:26:38;;;;;;;3.04;2.79;;;5.30;99.90;;;9.90;86.41;97919.73;1702232;74;24440;-79
2020/12/04 04:28:55;;;;;;;4.17;3.43;;;5.30;99.90;;;9.77;87.53;97914.58;1703206;74;24476;-80
2020/12/04 04:31:13;;;;;;;3.54;3.20;;;5.30;99.90;;;9.95;86.41;97916.09;1704604;74;24444;-79
2020/12/04 04:33:29;;;;;;;4.17;3.73;;;5.30;99.90;;;9.74;88.01;97920.70;1711213;74;24457;-79
2020/12/04 04:36:03;;;;;;;2.85;2.59;;;5.40;99.90;;;10.03;87.21;97914.09;1712373;74;24466;-80
2020/12/04 04:38:19;;;;;;;3.20;2.80;;;5.40;99.90;;;9.98;86.91;97926.83;1705333;74;24947;-80
2020/12/04 04:40:37;;;;;;;4.94;3.82;;;5.50;99.90;;;9.88;87.12;97945.78;1705576;74;24458;-77
2020/12/04 04:43:11;;;;;;;2.73;2.49;;;5.50;99.90;;;10.14;86.71;97937.14;1704312;74;24917;-80
2020/12/04 04:45:27;;;;;;;5.13;3.07;;;5.50;99.90;;;9.83;87.47;97928.19;1705562;74;24623;-79
2020/12/04 04:47:47;;;;;;;3.29;2.99;;;5.50;99.90;;;10.05;87.17;97945.23;1697405;75;24448;-79
2020/12/04 04:50:04;;;;;;;3.60;3.05;;;5.50;99.90;;;10.00;87.20;97918.53;1683935;75;24953;-79
2020/12/04 04:52:29;;;;;;;3.61;3.00;;;5.50;99.90;;;9.99;87.15;97931.97;1694648;75;24976;-79
2020/12/04 04:54:49;;;;;;;3.84;2.90;;;5.60;99.90;;;10.07;86.59;97918.74;1695714;75;24493;-79
2020/12/04 04:57:05;;;;;;;4.22;3.57;;;5.60;99.90;;;10.01;86.81;97930.63;1696485;74;24451;-79
2020/12/04 04:59:22;;;;;;;3.55;3.25;;;5.60;99.90;;;10.16;86.89;97932.75;1691772;73;24944;-80
2020/12/04 05:01:38;;;;;;;3.80;3.35;;;5.70;99.90;;;10.25;85.94;97922.88;1680960;75;24445;-79
2020/12/04 05:04:02;;;;;;;3.79;3.42;;;5.70;99.90;;;10.32;85.52;97924.82;1688131;75;24564;-79
2020/12/04 05:06:32;;;;;;;3.92;3.10;;;5.70;99.90;;;10.17;85.63;97925.34;1683600;75;24890;-77
2020/12/04 05:08:53;;;;;;;3.87;2.94;;;5.70;99.90;;;9.86;86.78;97929.85;1689914;74;24903;-78
2020/12/04 05:11:12;;;;;;;3.70;3.37;;;5.60;99.90;;;9.90;86.14;97906.30;1678959;75;24437;-79
2020/12/04 05:13:27;;;;;;;4.30;3.90;;;5.60;99.90;;;10.10;85.46;97918.66;1683638;75;24457;-80
2020/12/04 05:15:43;;;;;;;4.40;3.96;;;5.60;99.90;;;10.15;85.11;97917.59;1681861;75;24905;-79
2020/12/04 05:18:10;;;;;;;3.75;3.17;;;5.50;99.90;;;10.10;84.49;97909.09;1683738;75;24503;-78
2020/12/04 05:20:26;;;;;;;2.78;2.41;;;5.50;99.90;;;9.90;85.49;97915.40;1696110;75;24483;-79
2020/12/04 05:22:53;;;;;;;3.60;3.03;;;5.50;99.90;;;9.72;86.12;97924.27;1682769;75;24876;-78
2020/12/04 05:25:17;;;;;;;3.97;3.25;;;5.50;99.90;;;9.91;85.99;97924.88;1690363;75;24487;-78
2020/12/04 05:27:33;;;;;;;4.17;3.62;;;5.50;99.90;;;10.14;84.83;97921.11;1697177;75;24459;-80
2020/12/04 05:29:49;;;;;;;3.58;3.06;;;5.50;99.90;;;10.18;85.05;97923.98;1697028;75;24870;-79
2020/12/04 05:32:16;;;;;;;3.64;3.08;;;5.50;99.90;;;10.12;85.30;97925.94;1684746;75;24477;-80
2020/12/04 05:34:33;;;;;;;3.52;3.18;;;5.50;99.90;;;10.02;85.38;97917.57;1695330;75;24511;-78
2020/12/04 05:36:53;;;;;;;4.18;3.35;;;5.50;99.90;;;10.05;85.46;97940.03;1689110;75;24474;-79
2020/12/04 05:39:09;;;;;;;4.01;3.61;;;5.60;99.90;;;10.02;85.23;97927.14;1687130;74;24454;-79
2020/12/04 05:41:27;;;;;;;3.95;3.01;;;5.50;99.90;;;10.00;85.82;97928.49;1691393;75;24456;-79
2020/12/04 05:43:43;;;;;;;3.33;2.95;;;5.50;99.90;;;10.05;84.92;97943.45;1687324;75;24446;-80
2020/12/04 05:46:19;;;;;;;3.66;3.36;;;5.50;99.90;;;9.91;84.95;97936.58;1686520;74;24562;-78
2020/12/04 05:48:35;;;;;;;3.59;3.18;;;5.50;99.90;;;10.13;84.51;97935.45;1708979;74;24413;-79
2020/12/04 05:50:55;;;;;;;3.77;3.11;;;5.50;99.90;;;10.05;85.21;97942.63;1703626;74;24488;-80
2020/12/04 05:53:16;;;;;;;3.62;3.32;;;5.50;99.90;;;9.96;85.38;97944.22;1704838;74;24514;-80
2020/12/04 05:55:37;;;;;;;4.09;2.70;;;5.50;99.90;;;10.16;85.15;97948.34;1711204;74;24539;-80
2020/12/04 05:58:00;;;;;;;3.09;2.79;;;5.50;99.90;;;10.10;85.00;97950.69;1712249;74;24464;-78
2020/12/04 06:00:21;;;;;;;4.00;3.60;;;5.60;99.90;;;10.11;85.06;97947.66;1707604;74;24482;-84
2020/12/04 06:02:38;;;;;;;3.75;2.93;;;5.60;99.90;;;10.26;84.54;97943.21;1707826;74;24502;-83
2020/12/04 06:04:55;;;;;;;4.06;3.10;;;5.60;99.90;;;10.18;84.62;97950.45;1700745;74;24425;-83
2020/12/04 06:07:16;;;;;;;3.44;3.14;;;5.60;99.90;;;10.10;84.18;97953.30;1702137;74;24456;-83
2020/12/04 06:09:34;;;;;;;4.23;3.22;;;5.50;99.90;;;10.07;84.46;97946.04;1704175;74;24554;-77
2020/12/04 06:11:52;;;;;;;3.96;3.45;;;5.50;99.90;;;10.32;83.53;97959.93;1716720;73;24404;-80
2020/12/04 06:14:17;;;;;;;3.57;3.27;;;5.50;99.90;;;10.24;83.65;97966.67;1711743;74;24440;-80
2020/12/04 06:16:34;;;;;;;3.17;2.46;;;5.50;99.90;;;10.29;83.35;97960.03;1704870;74;24432;-81
2020/12/04 06:18:50;;;;;;;3.23;2.93;;;5.50;99.90;;;10.10;84.16;97969.36;1702424;74;24924;-79
2020/12/04 06:21:07;;;;;;;3.76;3.33;;;5.50;99.90;;;10.35;83.45;97967.63;1703852;74;24471;-79
2020/12/04 06:23:26;;;;;;;3.77;2.82;;;5.50;99.90;;;10.18;84.55;97964.76;1707835;74;24454;-81
2020/12/04 06:26:10;;;;;;;3.51;3.16;;;5.50;99.90;;;10.18;84.94;97973.86;1695395;74;25000;-82
2020/12/04 06:28:29;;;;;;;2.89;2.20;;;5.60;99.90;;;10.41;84.34;97964.36;1706451;74;25164;-80
2020/12/04 06:30:56;;;;;;;3.06;2.75;;;5.60;99.90;;;10.26;84.40;97970.52;1703261;74;24582;-81
2020/12/04 06:33:38;;;;;;;3.93;2.86;;;5.70;99.90;;;10.33;84.78;97970.72;1706449;74;24870;-81
2020/12/04 06:35:54;;;;;;;2.37;2.06;;;5.70;99.90;;;10.42;84.57;97974.30;1705805;74;24897;-80
2020/12/04 06:38:40;;;;;;;3.36;2.74;;;5.80;99.90;;;10.42;84.72;97971.25;1704359;74;24478;-81
2020/12/04 06:44:00;;;;;;;3.46;2.87;;;5.90;99.90;;;10.89;83.65;97977.34;1736195;72;25207;-79
2020/12/04 06:46:41;;;;;;;4.66;3.08;;;5.90;99.90;;;10.43;84.10;97974.71;1705975;75;24464;-80
2020/12/04 06:49:38;;;;;;;3.12;2.82;;;5.90;99.90;;;10.42;84.37;97983.39;1696160;75;24502;-78
2020/12/04 06:52:03;;;;;;;4.19;2.71;;;5.80;99.90;;;10.58;83.33;97982.83;1697643;75;24917;-78
2020/12/04 06:56:52;;;;;;;2.68;2.18;;;5.90;99.90;;;11.18;81.49;97998.41;1733075;72;25266;-77
2020/12/04 06:59:09;;;;;;;3.60;2.95;;;5.90;99.90;;;10.61;84.25;98002.23;1698621;74;24510;-77
2020/12/04 07:01:26;;;;;;;3.28;2.95;;;6.00;99.90;;;10.81;83.95;97999.38;1699360;74;24434;-79
2020/12/04 07:03:44;;;;;;;2.71;2.51;;;6.00;99.90;;;11.04;82.78;97991.13;1697482;75;24574;-77
2020/12/04 07:06:02;;;;;;;2.91;2.58;;;6.10;99.90;;;10.76;84.29;98001.29;1691159;75;24589;-79
2020/12/04 07:08:22;;;;;;;2.68;2.30;;;6.10;99.90;;;10.91;83.46;97995.07;1663202;76;24532;-78
2020/12/04 07:10:41;;;;;;;3.00;2.77;;;6.20;99.90;;;10.94;83.24;98008.45;1699845;75;24966;-79
2020/12/04 07:13:02;;;;;;;2.99;2.73;;;6.30;99.90;;;11.10;83.36;98005.66;1690984;75;24552;-78
2020/12/04 07:15:20;;;;;;;2.89;2.58;;;6.30;99.90;;;11.18;82.70;98012.73;1716430;75;24949;-82
2020/12/04 07:17:36;;;;;;;2.57;2.34;;;6.30;99.90;;;11.24;82.59;98007.33;1697274;75;24435;-78
2020/12/04 07:19:54;;;;;;;1.69;1.59;;;6.40;99.90;;;11.21;82.37;97990.03;1694807;75;24465;-79
2020/12/04 07:22:14;;;;;;;2.65;2.13;;;6.40;99.90;;;10.89;83.59;98015.09;1703664;75;24581;-78
2020/12/04 07:24:31;;;;;;;2.64;2.25;;;6.50;99.90;;;10.90;84.17;98019.86;1690332;75;24509;-78
2020/12/04 07:26:56;;;;;;;2.72;2.42;;;6.50;99.90;;;11.04;83.54;98030.62;1693751;75;24504;-77
2020/12/04 07:29:13;;;;;;;3.32;2.70;;;6.50;99.90;;;11.20;82.43;98030.02;1702378;75;24432;-78
2020/12/04 07:31:29;;;;;;;2.16;1.94;;;6.50;99.90;;;11.20;82.90;98026.56;1698743;75;24451;-76
2020/12/04 07:33:58;;;;;;;3.34;2.40;;;6.60;99.90;;;10.83;83.96;98034.84;1691077;75;24441;-78
2020/12/04 07:36:15;;;;;;;2.46;1.99;;;6.60;99.90;;;11.07;83.48;98041.78;1691040;75;24457;-78
2020/12/04 07:38:32;;;;;;;2.26;2.06;;;6.60;99.90;;;11.07;82.68;98044.83;1700744;75;24448;-78
2020/12/04 07:40:48;;;;;;;2.92;2.06;;;6.60;99.90;;;11.02;83.27;98041.57;1707111;75;24540;-78
2020/12/04 07:43:06;;;;;;;2.39;2.17;;;6.60;99.90;;;11.19;82.75;98056.13;1700423;75;24441;-78
2020/12/04 07:45:27;;;;;;;2.29;2.09;;;6.60;99.90;;;11.26;82.04;98053.23;1700124;75;24503;-77
2020/12/04 07:47:43;;;;;;;1.88;1.54;;;6.70;99.90;;;11.11;82.24;98056.38;1708479;74;24460;-77
2020/12/04 07:52:36;;;;;;;2.53;1.76;;;6.60;99.90;;;11.13;82.23;98059.78;1730107;72;25276;-77
2020/12/04 07:55:06;;;;;;;2.47;2.22;;;6.50;99.90;;;10.84;83.08;98073.45;1676504;75;24551;-77
2020/12/04 07:57:35;;;;;;;2.24;1.97;;;6.50;99.90;;;11.04;81.89;98085.30;1683860;74;24528;-77
2020/12/04 07:59:59;;;;;;;2.66;1.94;;;6.50;99.90;;;11.16;81.23;98096.61;1678205;75;25028;-78
2020/12/04 08:02:31;;;;;;;2.61;1.94;;;6.50;99.90;;;11.37;81.67;98106.23;1690389;75;24500;-79
2020/12/04 08:04:51;;;;;;;2.39;1.57;;;6.50;99.90;;;11.40;81.73;98095.70;1687874;74;24464;-78
2020/12/04 08:07:18;;;;;;;2.96;1.47;;;6.60;99.90;;;11.45;80.80;98100.30;1685742;75;24492;-78
2020/12/04 08:12:16;;;;;;;1.70;1.59;;;6.80;99.90;;;11.61;81.43;98117.92;1729788;72;25634;-78
2020/12/04 08:14:44;;;;;;;2.20;2.00;;;6.80;99.90;;;11.53;81.89;98136.05;1695306;74;25015;-77
2020/12/04 08:17:02;;;;;;;1.74;1.50;;;6.80;99.90;;;11.73;80.38;98138.78;1699270;75;24626;-77
2020/12/04 08:19:30;;;;;;;2.25;1.74;;;6.90;99.90;;;11.58;80.84;98141.94;1695946;75;24543;-79
2020/12/04 08:22:18;;;;;;;2.15;1.67;;;6.90;99.90;;;11.96;79.80;98147.92;1694129;75;24473;-80
2020/12/04 08:24:41;;;;;;;1.75;1.59;;;7.00;99.90;;;11.69;80.68;98152.41;1675887;74;24518;-78
2020/12/04 08:30:12;;;;;;;1.99;1.47;;;7.10;99.90;;;12.41;77.89;98142.20;1740829;72;25348;-79
2020/12/04 08:32:28;;;;;;;1.26;1.07;;;7.10;99.90;;;11.88;79.81;98146.91;1719144;73;25142;-78
2020/12/04 08:34:45;;;;;;;2.81;1.43;;;7.10;99.90;;;11.87;80.13;98156.09;1717758;73;24914;-78
2020/12/04 08:37:02;;;;;;;1.23;1.13;;;7.20;99.90;;;11.89;79.49;98152.52;1718122;73;24505;-77
2020/12/04 08:39:20;;;;;;;1.48;1.10;;;7.20;99.90;;;11.84;79.56;98149.66;1723273;73;24745;-79
2020/12/04 08:44:38;;;;;;;2.02;1.20;;;7.20;99.90;;;12.00;79.25;98147.73;1733684;72;25318;-77
2020/12/04 08:46:54;;;;;;;1.21;1.00;;;7.20;99.90;;;12.02;78.85;98143.77;1697158;75;24916;-77
2020/12/04 08:49:19;;;;;;;1.05;0.94;;;7.20;99.90;;;11.82;79.30;98151.50;1685376;75;24436;-76
2020/12/04 08:51:51;;;;;;;1.58;1.10;;;7.30;99.90;;;11.99;78.89;98149.09;1695373;75;24583;-80
2020/12/04 08:54:33;;;;;;;0.81;0.78;;;7.30;99.90;;;12.02;78.60;98148.53;1688868;75;24513;-77
2020/12/04 08:56:56;;;;;;;1.07;0.93;;;7.30;99.90;;;11.80;80.15;98151.56;1696013;75;25228;-78
2020/12/04 08:59:12;;;;;;;0.79;0.73;;;7.30;99.90;;;11.94;79.58;98154.94;1688924;75;24479;-76
2020/12/04 09:01:28;;;;;;;0.83;0.82;;;7.30;99.90;;;11.76;80.29;98156.47;1695380;73;24594;-78
2020/12/04 09:03:44;;;;;;;1.24;1.13;;;7.30;99.90;;;11.87;79.73;98163.44;1695256;73;24656;-78
2020/12/04 09:06:03;;;;;;;1.75;0.96;;;7.30;99.90;;;12.12;79.16;98161.59;1687774;75;24489;-78
2020/12/04 09:08:20;;;;;;;3.58;0.91;;;7.30;99.90;;;12.22;77.69;98170.40;1691815;75;24507;-78
2020/12/04 09:10:37;;;;;;;1.35;1.05;;;7.40;99.90;;;12.26;77.88;98176.73;1687349;75;24862;-78
2020/12/04 09:12:56;;;;;;;1.41;1.06;;;7.40;99.90;;;12.43;77.31;98183.89;1687440;75;24556;-77
2020/12/04 09:15:15;;;;;;;1.36;1.15;;;7.50;99.90;;;12.28;78.43;98189.72;1688621;75;25031;-79
2020/12/04 09:17:31;;;;;;;1.41;1.13;;;7.60;99.90;;;12.57;77.85;98190.72;1691806;75;24615;-78
2020/12/04 09:19:48;;;;;;;1.28;1.18;;;7.70;99.90;;;12.49;78.01;98195.42;1687879;73;25105;-77
2020/12/04 09:22:04;;;;;;;1.48;1.29;;;7.80;99.90;;;12.52;78.32;98192.21;1699191;75;24510;-77
2020/12/04 09:24:20;;;;;;;1.41;1.17;;;7.90;99.90;;;12.94;76.76;98191.80;1695920;75;24524;-77
2020/12/04 09:26:36;;;;;;;2.75;1.25;;;8.00;99.90;;;12.91;77.07;98194.99;1691788;75;24516;-78
2020/12/04 09:28:52;;;;;;;1.40;1.20;;;8.10;99.90;;;13.03;76.83;98197.12;1689284;75;24917;-78
2020/12/04 09:31:09;;;;;;;1.62;1.03;;;8.20;99.90;;;12.91;77.25;98205.44;1688472;75;24996;-77
2020/12/04 09:33:28;;;;;;;1.24;1.14;;;8.20;99.90;;;12.81;77.36;98211.48;1691410;75;24516;-79
2020/12/04 09:35:44;;;;;;;1.18;1.08;;;8.30;99.90;;;12.74;77.20;98211.33;1690070;75;24546;-77
2020/12/04 09:38:01;;;;;;;2.03;1.10;;;8.30;99.90;;;13.01;75.89;98206.80;1703080;73;24545;-76
2020/12/04 09:40:20;;;;;;;1.02;1.02;;;8.20;99.90;;;12.91;76.39;98208.05;1693805;75;24524;-78
2020/12/04 09:42:37;;;;;;;1.32;0.82;;;8.20;99.90;;;12.85;76.60;98219.58;1699068;75;24597;-79
2020/12/04 09:44:57;;;;;;;2.02;1.03;;;8.30;99.90;;;12.89;76.80;98232.06;1688249;75;24499;-76
2020/12/04 09:47:14;;;;;;;1.33;0.78;;;8.40;99.90;;;13.29;75.26;98237.40;1683831;75;24507;-79
2020/12/04 09:49:30;;;;;;;0.69;0.58;;;8.40;99.90;;;13.34;74.11;98228.91;1679298;75;24537;-79
2020/12/04 09:51:48;;;;;;;0.72;0.71;;;8.50;99.90;;;13.14;74.05;98240.63;1684315;75;24514;-77
2020/12/04 09:54:05;;;;;;;1.23;0.66;;;8.60;99.90;;;13.30;72.79;98245.17;1680794;75;24450;-77
2020/12/04 09:56:23;;;;;;;1.20;0.66;;;8.70;99.90;;;13.18;71.90;98241.74;1686871;73;25059;-79
2020/12/04 09:58:39;;;;;;;1.42;0.90;;;8.70;99.90;;;13.23;70.69;98251.55;1691747;73;24525;-76
2020/12/04 10:00:54;;;;;;;0.90;0.36;;;8.70;99.90;;;13.14;69.83;98249.33;1679044;75;24573;-76
2020/12/04 10:03:11;;;;;;;0.64;0.43;;;8.80;99.90;;;13.39;68.82;98242.16;1686109;75;24956;-78
2020/12/04 10:05:28;;;;;;;0.49;0.49;;;8.90;99.90;;;13.56;68.12;98248.83;1684269;75;25119;-80
2020/12/04 10:07:44;;;;;;;0.69;0.60;;;9.20;99.90;;;13.69;68.34;98243.47;1678458;75;24512;-78
2020/12/04 10:10:02;;;;;;;0.79;0.60;;;9.40;99.90;;;13.23;68.29;98242.41;1676685;75;24442;-78
2020/12/04 10:12:18;;;;;;;1.42;0.56;;;9.40;99.90;;;13.37;66.30;98270.13;1683490;75;24465;-78